createdAt,value
2022-12-11T00:00:48.491Z,100539.72
2022-12-11T00:03:19.996Z,100606.81
2022-12-11T00:05:49.917Z,100605.00
2022-12-11T00:08:19.762Z,100601.22
2022-12-11T00:10:51.242Z,100545.13
2022-12-11T00:13:21.028Z,100604.41
2022-12-11T00:15:53.408Z,100609.69
2022-12-11T00:18:23.255Z,100607.16
2022-12-11T00:20:53.015Z,100598.41
2022-12-11T00:23:22.807Z,100605.56
2022-12-11T00:25:52.758Z,100596.13
2022-12-11T00:28:22.547Z,100600.31
2022-12-11T00:30:55.418Z,100604.31
2022-12-11T00:33:25.229Z,100546.31
2022-12-11T00:35:54.986Z,100599.25
2022-12-11T00:38:24.746Z,100597.75
2022-12-11T00:40:54.618Z,100604.38
2022-12-11T00:43:24.394Z,100598.63
2022-12-11T00:45:56.877Z,100578.25
2022-12-11T00:48:26.718Z,100602.34
2022-12-11T00:50:56.634Z,100598.25
2022-12-11T00:53:26.538Z,100611.78
2022-12-11T00:55:56.426Z,100573.84
2022-12-11T00:58:26.307Z,100606.28
2022-12-11T01:00:59.049Z,100609.44
2022-12-11T01:03:28.938Z,100605.72
2022-12-11T01:05:58.727Z,100617.03
2022-12-11T01:08:28.668Z,100613.34
2022-12-11T01:11:02.961Z,100605.97
2022-12-11T01:13:32.746Z,100609.00
2022-12-11T01:16:10.284Z,100583.75
2022-12-11T01:18:40.398Z,100612.41
2022-12-11T01:21:11.778Z,100616.03
2022-12-11T01:23:42.480Z,100618.19
2022-12-11T01:26:14.995Z,100609.53
2022-12-11T01:28:45.840Z,100608.34
2022-12-11T01:31:20.198Z,100612.84
2022-12-11T01:33:50.040Z,100608.28
2022-12-11T01:36:22.154Z,100615.81
2022-12-11T01:38:54.440Z,100550.16
2022-12-11T01:41:24.676Z,100552.00
2022-12-11T01:44:02.924Z,100613.94
2022-12-11T01:46:36.610Z,100608.75
2022-12-11T01:49:08.865Z,100590.16
2022-12-11T01:51:43.247Z,100608.91
2022-12-11T01:54:17.058Z,100598.56
2022-12-11T01:56:48.686Z,100608.66
2022-12-11T01:59:21.704Z,100590.34
2022-12-11T02:01:57.801Z,100615.59
2022-12-11T02:04:28.117Z,100612.06
2022-12-11T02:06:58.564Z,100614.81
2022-12-11T02:09:31.950Z,100614.56
2022-12-11T02:12:06.332Z,100606.09
2022-12-11T02:14:45.934Z,100609.44
2022-12-11T02:17:23.327Z,100604.50
2022-12-11T02:20:05.421Z,100585.47
2022-12-11T02:22:55.740Z,100603.09
2022-12-11T02:25:34.146Z,100604.84
2022-12-11T02:28:21.290Z,100604.38
2022-12-11T02:30:57.212Z,100604.41
2022-12-11T02:33:39.896Z,100591.13
2022-12-11T02:36:12.887Z,100599.00
2022-12-11T02:38:50.660Z,100602.91
2022-12-11T02:41:23.089Z,100594.41
2022-12-11T02:43:58.107Z,100597.97
2022-12-11T02:46:29.070Z,100592.50
2022-12-11T02:48:59.816Z,100591.22
2022-12-11T02:51:37.016Z,100575.78
2022-12-11T02:54:09.803Z,100591.28
2022-12-11T02:56:45.037Z,100589.38
2022-12-11T02:59:21.858Z,100587.91
2022-12-11T03:01:51.779Z,100591.91
2022-12-11T03:04:24.921Z,100595.03
2022-12-11T03:07:00.064Z,100590.09
2022-12-11T03:09:30.390Z,100527.00
2022-12-11T03:12:00.248Z,100587.44
2022-12-11T03:14:32.741Z,100580.72
2022-12-11T03:17:10.988Z,100585.06
2022-12-11T03:19:44.630Z,100581.16
2022-12-11T03:22:19.385Z,100572.69
2022-12-11T03:24:53.887Z,100575.44
2022-12-11T03:27:33.232Z,100569.75
2022-12-11T03:30:10.706Z,100527.50
2022-12-11T03:32:47.403Z,100582.72
2022-12-11T03:35:22.520Z,100571.00
2022-12-11T03:37:55.025Z,100585.31
2022-12-11T03:40:28.460Z,100574.38
2022-12-11T03:43:00.624Z,100581.06
2022-12-11T03:45:33.311Z,100574.38
2022-12-11T03:48:05.614Z,100578.63
2022-12-11T03:50:37.422Z,100577.53
2022-12-11T03:53:08.623Z,100584.19
2022-12-11T03:55:40.484Z,100471.56
2022-12-11T03:58:10.818Z,100589.66
2022-12-11T04:00:43.265Z,100589.28
2022-12-11T04:03:16.555Z,100471.66
2022-12-11T04:05:48.918Z,100579.94
2022-12-11T04:08:20.741Z,100575.88
2022-12-11T04:11:10.846Z,100564.72
2022-12-11T04:13:41.084Z,100586.88
2022-12-11T04:16:11.017Z,100578.88
2022-12-11T04:18:53.310Z,100587.09
2022-12-11T04:21:39.429Z,100575.06
2022-12-11T04:24:19.189Z,100579.22
2022-12-11T04:26:50.682Z,100583.91
2022-12-11T04:29:20.496Z,100588.31
2022-12-11T04:31:53.415Z,100588.88
2022-12-11T04:34:23.304Z,100533.00
2022-12-11T04:36:53.233Z,100589.97
2022-12-11T04:39:23.081Z,100585.97
2022-12-11T04:41:52.903Z,100581.19
2022-12-11T04:44:22.726Z,100588.22
2022-12-11T04:46:55.178Z,100591.03
2022-12-11T04:49:24.995Z,100588.88
2022-12-11T04:51:54.827Z,100587.09
2022-12-11T04:54:24.915Z,100591.69
2022-12-11T04:56:54.746Z,100584.59
2022-12-11T04:59:24.683Z,100581.88
2022-12-11T05:01:57.680Z,100576.56
2022-12-11T05:04:27.567Z,100518.16
2022-12-11T05:06:57.414Z,100571.72
2022-12-11T05:09:27.450Z,100561.72
2022-12-11T05:11:57.487Z,100569.59
2022-12-11T05:14:27.636Z,100570.72
2022-12-11T05:17:00.423Z,100484.84
2022-12-11T05:19:30.592Z,100558.69
2022-12-11T05:22:00.410Z,100573.06
2022-12-11T05:24:30.237Z,100541.28
2022-12-11T05:27:02.877Z,100565.00
2022-12-11T05:29:32.704Z,100562.78
2022-12-11T05:32:05.126Z,100569.50
2022-12-11T05:34:35.187Z,100545.81
2022-12-11T05:37:05.057Z,100569.66
2022-12-11T05:39:34.875Z,100568.69
2022-12-11T05:42:04.703Z,100514.25
2022-12-11T05:44:34.529Z,100576.47
2022-12-11T05:47:07.025Z,100575.06
2022-12-11T05:49:36.822Z,100504.97
2022-12-11T05:52:06.801Z,100564.00
2022-12-11T05:54:36.637Z,100564.97
2022-12-11T05:57:06.491Z,100568.50
2022-12-11T05:59:36.357Z,100567.72
2022-12-11T06:02:08.852Z,100503.81
2022-12-11T06:04:38.786Z,100565.28
2022-12-11T06:07:08.620Z,100575.41
2022-12-11T06:09:38.470Z,100556.25
2022-12-11T06:12:08.595Z,100565.00
2022-12-11T06:14:38.458Z,100566.69
2022-12-11T06:17:10.901Z,100560.44
2022-12-11T06:19:41.026Z,100562.00
2022-12-11T06:22:10.861Z,100561.53
2022-12-11T06:24:40.838Z,100535.38
2022-12-11T06:27:10.653Z,100560.56
2022-12-11T06:29:40.489Z,100560.84
2022-12-11T06:32:12.968Z,100560.13
2022-12-11T06:34:43.005Z,100557.03
2022-12-11T06:37:12.808Z,100560.16
2022-12-11T06:39:42.693Z,100554.91
2022-12-11T06:42:13.523Z,100550.31
2022-12-11T06:44:43.372Z,100537.31
2022-12-11T06:47:15.810Z,100538.38
2022-12-11T06:49:45.658Z,100559.69
2022-12-11T06:52:18.574Z,100549.97
2022-12-11T06:54:48.761Z,100563.50
2022-12-11T06:57:19.488Z,100564.72
2022-12-11T06:59:49.536Z,100561.47
2022-12-11T07:02:23.337Z,100580.50
2022-12-11T07:04:55.273Z,100573.66
2022-12-11T07:07:25.307Z,100566.13
2022-12-11T07:09:55.238Z,100565.91
2022-12-11T07:12:25.104Z,100568.88
2022-12-11T07:14:54.925Z,100569.59
2022-12-11T07:17:27.395Z,100496.53
2022-12-11T07:19:58.045Z,100571.31
2022-12-11T07:22:27.834Z,100563.88
2022-12-11T07:24:57.664Z,100582.25
2022-12-11T07:27:27.483Z,100571.06
2022-12-11T07:29:57.893Z,100579.47
2022-12-11T07:32:30.384Z,100577.16
2022-12-11T07:35:00.314Z,100576.81
2022-12-11T07:37:30.188Z,100577.22
2022-12-11T07:40:00.093Z,100582.00
2022-12-11T07:42:30.972Z,100528.16
2022-12-11T07:45:00.995Z,100561.88
2022-12-11T07:47:33.525Z,100576.16
2022-12-11T07:50:03.458Z,100584.22
2022-12-11T07:52:36.236Z,100569.97
2022-12-11T07:55:06.705Z,100581.03
2022-12-11T07:57:36.593Z,100562.94
2022-12-11T08:00:07.540Z,100578.94
2022-12-11T08:02:44.887Z,100576.34
2022-12-11T08:05:15.004Z,100559.91
2022-12-11T08:07:44.949Z,100577.22
2022-12-11T08:10:14.873Z,100582.06
2022-12-11T08:12:44.933Z,100582.41
2022-12-11T08:15:14.802Z,100554.59
2022-12-11T08:17:47.288Z,100574.34
2022-12-11T08:20:17.200Z,100565.69
2022-12-11T08:22:47.061Z,100581.97
2022-12-11T08:25:16.914Z,100553.75
2022-12-11T08:27:46.866Z,100575.69
2022-12-11T08:30:17.149Z,100583.56
2022-12-11T08:32:49.789Z,100583.91
2022-12-11T08:35:19.766Z,100551.28
2022-12-11T08:37:49.698Z,100580.31
2022-12-11T08:40:20.405Z,100591.41
2022-12-11T08:42:50.353Z,100580.84
2022-12-11T08:45:20.277Z,100579.59
2022-12-11T08:47:53.990Z,100569.56
2022-12-11T08:50:23.931Z,100591.03
2022-12-11T08:52:53.973Z,100576.81
2022-12-11T08:55:24.810Z,100584.34
2022-12-11T08:57:54.726Z,100584.59
2022-12-11T09:00:24.703Z,100581.31
2022-12-11T09:02:57.263Z,100544.09
2022-12-11T09:05:27.242Z,100520.00
2022-12-11T09:07:57.200Z,100562.88
2022-12-11T09:10:27.258Z,100584.47
2022-12-11T09:12:58.123Z,100571.44
2022-12-11T09:15:28.136Z,100584.63
2022-12-11T09:18:00.719Z,100582.31
2022-12-11T09:20:30.687Z,100527.19
2022-12-11T09:23:00.639Z,100572.19
2022-12-11T09:25:30.577Z,100585.34
2022-12-11T09:28:00.483Z,100591.94
2022-12-11T09:30:30.495Z,100571.59
2022-12-11T09:33:03.307Z,100589.06
2022-12-11T09:35:33.203Z,100581.44
2022-12-11T09:38:03.164Z,100585.78
2022-12-11T09:40:34.465Z,100561.56
2022-12-11T09:43:09.460Z,100587.59
2022-12-11T09:45:39.454Z,100586.47
2022-12-11T09:48:14.063Z,100578.50
2022-12-11T09:50:44.725Z,100512.09
2022-12-11T09:53:19.322Z,100582.03
2022-12-11T09:55:56.312Z,100572.69
2022-12-11T09:58:34.593Z,100578.41
2022-12-11T10:01:11.919Z,100567.31
2022-12-11T10:03:58.364Z,100539.00
2022-12-11T10:06:35.954Z,100557.41
2022-12-11T10:09:16.953Z,100516.56
2022-12-11T10:11:59.173Z,100551.97
2022-12-11T10:14:38.662Z,100555.50
2022-12-11T10:17:14.268Z,100550.84
2022-12-11T10:19:46.833Z,100548.66
2022-12-11T10:22:23.298Z,100496.50
2022-12-11T10:25:14.266Z,100546.59
2022-12-11T10:27:45.241Z,100542.88
2022-12-11T10:30:19.519Z,100542.72
2022-12-11T10:32:55.256Z,100538.91
2022-12-11T10:35:36.301Z,100540.53
2022-12-11T10:38:15.306Z,100540.44
2022-12-11T10:40:47.830Z,100519.94
2022-12-11T10:43:18.004Z,100535.97
2022-12-11T10:45:55.523Z,100536.63
2022-12-11T10:48:25.770Z,100472.47
2022-12-11T10:51:07.176Z,100532.16
2022-12-11T10:53:37.640Z,100534.91
2022-12-11T10:56:09.432Z,100534.53
2022-12-11T10:58:43.299Z,100524.03
2022-12-11T11:01:17.837Z,100538.78
2022-12-11T11:03:58.120Z,100533.34
2022-12-11T11:06:30.865Z,100532.38
2022-12-11T11:09:03.086Z,100470.66
2022-12-11T11:11:36.830Z,100535.97
2022-12-11T11:14:16.597Z,100471.97
2022-12-11T11:16:48.743Z,100471.69
2022-12-11T11:19:25.966Z,100530.75
2022-12-11T11:22:01.877Z,100529.53
2022-12-11T11:24:37.889Z,100533.34
2022-12-11T11:27:15.930Z,100515.19
2022-12-11T11:29:52.825Z,100520.38
2022-12-11T11:32:26.354Z,100465.34
2022-12-11T11:34:56.375Z,100459.06
2022-12-11T11:37:34.797Z,100525.63
2022-12-11T11:40:14.746Z,100520.75
2022-12-11T11:42:50.226Z,100530.06
2022-12-11T11:45:26.994Z,100492.53
2022-12-11T11:48:11.117Z,100522.75
2022-12-11T11:50:50.513Z,100521.16
2022-12-11T11:53:29.870Z,100531.84
2022-12-11T11:56:08.484Z,100532.56
2022-12-11T11:58:44.591Z,100528.53
2022-12-11T12:01:18.859Z,100538.13
2022-12-11T12:03:50.574Z,100524.22
2022-12-11T12:06:31.652Z,100545.28
2022-12-11T12:09:13.072Z,100536.63
2022-12-11T12:11:47.667Z,100521.41
2022-12-11T12:14:51.100Z,100529.41
2022-12-11T12:17:23.329Z,100514.78
2022-12-11T12:20:04.390Z,100487.91
2022-12-11T12:22:48.164Z,100472.09
2022-12-11T12:25:29.895Z,100521.41
2022-12-11T12:28:08.561Z,100515.28
2022-12-11T12:30:48.412Z,100523.38
2022-12-11T12:33:32.689Z,100507.88
2022-12-11T12:36:09.023Z,100514.63
2022-12-11T12:38:47.163Z,100516.19
2022-12-11T12:41:25.432Z,100455.66
2022-12-11T12:44:07.664Z,100451.66
2022-12-11T12:46:52.326Z,100471.31
2022-12-11T12:49:37.140Z,100501.44
2022-12-11T12:52:13.284Z,100451.31
2022-12-11T12:55:05.586Z,100499.63
2022-12-11T12:57:41.389Z,100503.53
2022-12-11T13:00:13.675Z,100495.78
2022-12-11T13:02:53.860Z,100491.97
2022-12-11T13:05:26.142Z,100450.47
2022-12-11T13:08:00.026Z,100496.22
2022-12-11T13:10:34.131Z,100468.78
2022-12-11T13:13:08.303Z,100496.69
2022-12-11T13:15:43.707Z,100485.97
2022-12-11T13:18:33.607Z,100489.22
2022-12-11T13:21:03.896Z,100493.53
2022-12-11T13:23:36.123Z,100499.91
2022-12-11T13:26:07.603Z,100500.63
2022-12-11T13:28:51.930Z,100505.81
2022-12-11T13:31:38.123Z,100500.84
2022-12-11T13:34:18.989Z,100485.38
2022-12-11T13:36:53.846Z,100496.06
2022-12-11T13:39:27.737Z,100425.44
2022-12-11T13:42:05.087Z,100497.66
2022-12-11T13:44:42.085Z,100500.47
2022-12-11T13:47:17.737Z,100504.03
2022-12-11T13:49:51.617Z,100502.69
2022-12-11T13:52:23.332Z,100509.28
2022-12-11T13:54:55.545Z,100507.88
2022-12-11T13:57:28.451Z,100507.09
2022-12-11T14:00:02.287Z,100510.69
2022-12-11T14:02:38.603Z,100495.44
2022-12-11T14:05:13.048Z,100510.69
2022-12-11T14:07:46.238Z,100512.50
2022-12-11T14:10:20.990Z,100505.75
2022-12-11T14:12:56.486Z,100510.06
2022-12-11T14:15:29.545Z,100511.50
2022-12-11T14:18:00.795Z,100512.03
2022-12-11T14:20:33.800Z,100511.00
2022-12-11T14:23:10.588Z,100451.03
2022-12-11T14:25:40.466Z,100513.38
2022-12-11T14:28:19.614Z,100517.72
2022-12-11T14:30:54.507Z,100517.94
2022-12-11T14:33:28.865Z,100494.50
2022-12-11T14:35:59.250Z,100520.84
2022-12-11T14:38:32.198Z,100523.28
2022-12-11T14:41:06.352Z,100496.38
2022-12-11T14:43:42.100Z,100501.81
2022-12-11T14:46:21.700Z,100536.09
2022-12-11T14:49:00.649Z,100531.59
2022-12-11T14:51:36.602Z,100534.91
2022-12-11T14:54:07.761Z,100485.44
2022-12-11T14:56:38.100Z,100474.38
2022-12-11T14:59:11.152Z,100539.31
2022-12-11T15:01:43.714Z,100439.94
2022-12-11T15:04:26.939Z,100540.03
2022-12-11T15:06:56.880Z,100537.28
2022-12-11T15:09:30.625Z,100543.50
2022-12-11T15:12:11.233Z,100541.66
2022-12-11T15:14:50.302Z,100543.16
2022-12-11T15:17:23.605Z,100471.63
2022-12-11T15:19:56.142Z,100480.88
2022-12-11T15:22:33.127Z,100545.69
2022-12-11T15:25:03.760Z,100546.56
2022-12-11T15:27:36.899Z,100547.41
2022-12-11T15:30:18.929Z,100545.25
2022-12-11T15:32:51.510Z,100546.03
2022-12-11T15:35:26.342Z,100553.59
2022-12-11T15:37:57.309Z,100545.25
2022-12-11T15:40:27.995Z,100533.53
2022-12-11T15:42:58.752Z,100499.59
2022-12-11T15:45:30.854Z,100509.53
2022-12-11T15:48:03.400Z,100551.56
2022-12-11T15:50:33.436Z,100547.44
2022-12-11T15:53:03.328Z,100546.03
2022-12-11T15:55:35.113Z,100542.66
2022-12-11T15:58:09.963Z,100561.84
2022-12-11T16:00:39.914Z,100514.00
2022-12-11T16:03:14.037Z,100540.31
2022-12-11T16:05:44.807Z,100559.44
2022-12-11T16:08:17.212Z,100558.59
2022-12-11T16:10:48.342Z,100543.69
2022-12-11T16:13:18.552Z,100542.91
2022-12-11T16:15:51.049Z,100548.25
2022-12-11T16:18:26.548Z,100542.06
2022-12-11T16:20:56.549Z,100539.47
2022-12-11T16:23:29.329Z,100471.13
2022-12-11T16:25:59.248Z,100535.22
2022-12-11T16:28:29.165Z,100533.00
2022-12-11T16:30:59.938Z,100539.53
2022-12-11T16:33:32.581Z,100533.38
2022-12-11T16:36:02.502Z,100542.09
2022-12-11T16:38:32.437Z,100487.34
2022-12-11T16:41:03.540Z,100550.78
2022-12-11T16:43:34.906Z,100544.16
2022-12-11T16:46:04.884Z,100542.06
2022-12-11T16:48:37.450Z,100537.91
2022-12-11T16:51:07.550Z,100540.72
2022-12-11T16:53:37.541Z,100548.25
2022-12-11T16:56:08.192Z,100534.16
2022-12-11T16:58:38.284Z,100555.81
2022-12-11T17:01:12.242Z,100491.44
2022-12-11T17:03:46.026Z,100558.53
2022-12-11T17:06:19.142Z,100546.16
2022-12-11T17:08:49.656Z,100547.41
2022-12-11T17:11:22.183Z,100552.63
2022-12-11T17:13:56.151Z,100549.66
2022-12-11T17:16:30.373Z,100549.03
2022-12-11T17:19:03.510Z,100550.97
2022-12-11T17:21:33.452Z,100554.31
2022-12-11T17:24:03.435Z,100537.69
2022-12-11T17:26:33.485Z,100557.59
2022-12-11T17:29:03.586Z,100496.50
2022-12-11T17:31:33.673Z,100558.66
2022-12-11T17:34:06.731Z,100556.78
2022-12-11T17:36:37.448Z,100545.06
2022-12-11T17:39:07.443Z,100552.63
2022-12-11T17:41:37.338Z,100553.50
2022-12-11T17:44:07.280Z,100554.72
2022-12-11T17:46:37.212Z,100554.53
2022-12-11T17:49:09.774Z,100561.81
2022-12-11T17:51:39.947Z,100558.03
2022-12-11T17:54:09.964Z,100554.72
2022-12-11T17:56:40.622Z,100555.59
2022-12-11T17:59:10.561Z,100490.31
2022-12-11T18:01:40.658Z,100562.59
2022-12-11T18:04:13.297Z,100553.84
2022-12-11T18:06:43.583Z,100556.34
2022-12-11T18:09:13.483Z,100549.78
2022-12-11T18:11:44.191Z,100497.06
2022-12-11T18:14:17.350Z,100547.59
2022-12-11T18:16:48.471Z,100552.38
2022-12-11T18:19:22.776Z,100552.47
2022-12-11T18:21:52.888Z,100540.31
2022-12-11T18:24:25.854Z,100546.16
2022-12-11T18:26:55.783Z,100544.84
2022-12-11T18:29:25.711Z,100543.31
2022-12-11T18:31:55.714Z,100544.56
2022-12-11T18:34:28.446Z,100553.84
2022-12-11T18:36:58.632Z,100550.75
2022-12-11T18:39:28.717Z,100550.47
2022-12-11T18:42:31.223Z,100549.41
2022-12-11T18:44:48.562Z,100548.22
2022-12-11T18:47:19.493Z,100540.69
2022-12-11T18:49:52.078Z,100524.41
2022-12-11T18:52:22.108Z,100537.41
2022-12-11T18:54:52.408Z,100537.41
2022-12-11T18:57:22.392Z,100537.94
2022-12-11T18:59:54.123Z,100536.19
2022-12-11T19:02:24.730Z,100536.88
2022-12-11T19:04:57.355Z,100529.00
2022-12-11T19:07:27.426Z,100539.28
2022-12-11T19:09:57.379Z,100541.78
2022-12-11T19:12:27.407Z,100541.03
2022-12-11T19:14:57.502Z,100536.41
2022-12-11T19:17:27.539Z,100535.47
2022-12-11T19:20:05.345Z,100518.59
2022-12-11T19:22:49.453Z,100538.88
2022-12-11T19:25:19.527Z,100493.91
2022-12-11T19:27:50.549Z,100550.19
2022-12-11T19:30:20.540Z,100546.75
2022-12-11T19:32:50.433Z,100550.53
2022-12-11T19:35:22.961Z,100552.84
2022-12-11T19:37:52.927Z,100553.97
2022-12-11T19:40:26.250Z,100559.84
2022-12-11T19:42:56.546Z,100493.69
2022-12-11T19:45:26.437Z,100563.56
2022-12-11T19:47:56.367Z,100536.63
2022-12-11T19:50:28.904Z,100548.53
2022-12-11T19:52:58.836Z,100561.94
2022-12-11T19:55:28.923Z,100554.09
2022-12-11T19:57:58.882Z,100561.06
2022-12-11T20:00:28.851Z,100556.81
2022-12-11T20:02:58.874Z,100544.78
2022-12-11T20:05:31.378Z,100555.44
2022-12-11T20:08:27.413Z,100559.31
2022-12-11T20:10:51.751Z,100564.84
2022-12-11T20:13:21.768Z,100558.97
2022-12-11T20:15:52.119Z,100563.31
2022-12-11T20:18:22.094Z,100562.06
2022-12-11T20:20:54.595Z,100567.09
2022-12-11T20:23:24.566Z,100571.22
2022-12-11T20:25:58.781Z,100568.25
2022-12-11T20:28:29.316Z,100570.13
2022-12-11T20:31:06.699Z,100544.59
2022-12-11T20:33:37.019Z,100567.22
2022-12-11T20:36:13.772Z,100572.19
2022-12-11T20:38:44.301Z,100560.34
2022-12-11T20:41:16.955Z,100575.06
2022-12-11T20:43:47.076Z,100585.03
2022-12-11T20:46:18.608Z,100583.78
2022-12-11T20:48:50.794Z,100576.28
2022-12-11T20:51:26.628Z,100574.72
2022-12-11T20:54:01.278Z,100574.56
2022-12-11T20:56:33.194Z,100576.66
2022-12-11T20:59:03.550Z,100571.63
2022-12-11T21:01:36.794Z,100578.00
2022-12-11T21:04:06.726Z,100577.94
2022-12-11T21:06:42.130Z,100536.91
2022-12-11T21:09:15.786Z,100569.53
2022-12-11T21:11:46.783Z,100524.66
2022-12-11T21:14:27.674Z,100577.75
2022-12-11T21:16:58.023Z,100586.88
2022-12-11T21:19:28.393Z,100585.16
2022-12-11T21:21:58.377Z,100592.28
2022-12-11T21:24:30.118Z,100591.69
2022-12-11T21:27:01.917Z,100597.78
2022-12-11T21:29:34.515Z,100598.25
2022-12-11T21:32:04.455Z,100594.47
2022-12-11T21:34:34.368Z,100600.19
2022-12-11T21:37:04.244Z,100598.84
2022-12-11T21:39:39.185Z,100599.78
2022-12-11T21:42:09.401Z,100584.19
2022-12-11T21:45:37.493Z,100602.56
2022-12-11T21:47:31.647Z,100575.91
2022-12-11T21:50:01.490Z,100581.66
2022-12-11T21:52:31.258Z,100578.00
2022-12-11T21:55:01.094Z,100593.22
2022-12-11T21:57:30.968Z,100594.03
2022-12-11T22:00:04.406Z,100585.25
2022-12-11T22:02:41.910Z,100590.34
2022-12-11T22:05:12.747Z,100589.84
2022-12-11T22:07:42.775Z,100594.03
2022-12-11T22:10:13.411Z,100592.94
2022-12-11T22:12:43.181Z,100595.94
2022-12-11T22:15:15.696Z,100582.72
2022-12-11T22:17:45.599Z,100605.66
2022-12-11T22:20:15.449Z,100593.25
2022-12-11T22:22:46.728Z,100596.91
2022-12-11T22:25:16.731Z,100600.75
2022-12-11T22:27:46.739Z,100604.59
2022-12-11T22:30:19.536Z,100581.41
2022-12-11T22:32:51.330Z,100600.47
2022-12-11T22:35:26.858Z,100599.72
2022-12-11T22:37:57.174Z,100574.16
2022-12-11T22:40:27.064Z,100594.78
2022-12-11T22:42:57.056Z,100568.38
2022-12-11T22:45:29.482Z,100573.75
2022-12-11T22:47:59.282Z,100589.34
2022-12-11T22:50:29.138Z,100585.22
2022-12-11T22:52:58.908Z,100578.88
2022-12-11T22:55:29.765Z,100581.38
2022-12-11T22:57:59.569Z,100578.22
2022-12-11T23:00:31.923Z,100580.22
2022-12-11T23:03:02.200Z,100573.78
2022-12-11T23:05:32.455Z,100579.16
2022-12-11T23:08:02.405Z,100585.13
2022-12-11T23:10:32.241Z,100578.22
2022-12-11T23:13:01.986Z,100589.75
2022-12-11T23:15:34.368Z,100577.94
2022-12-11T23:18:04.585Z,100582.44
2022-12-11T23:20:34.405Z,100583.13
2022-12-11T23:23:04.152Z,100569.94
2022-12-11T23:25:33.903Z,100580.72
2022-12-11T23:28:03.826Z,100591.31
2022-12-11T23:30:36.287Z,100594.13
2022-12-11T23:33:06.581Z,100587.94
2022-12-11T23:35:36.557Z,100588.59
2022-12-11T23:38:06.438Z,100583.41
2022-12-11T23:40:36.629Z,100588.22
2022-12-11T23:43:06.557Z,100556.31
2022-12-11T23:45:38.918Z,100580.00
2022-12-11T23:48:08.707Z,100591.25
2022-12-11T23:50:38.509Z,100584.63
2022-12-11T23:53:08.305Z,100588.56
2022-12-11T23:55:40.738Z,100563.19
2022-12-11T23:58:10.855Z,100594.75
